Accueil
METAR-TAF:

METAR-TAF

Aéroports :

Quaqtaq, Québec, Canada

latitude: 61-03N, longitude: 069-38W, altitude: 30 m

Observation

Le bulletin a été fait il y a 15 heures et 13 minutes, à 15:00 UTC
Vent 19 kt de ouest/nord-ouest avec des rafales jusqu'à 26 kt
Température 4°C
Humidité 81%
Pression 996 hPa
Visibilité: 24.1 km
Ciel couvert à une hauteur de 2700 ft

METAR: CYHA 171500Z 30019G26KT 15SM OVC027 04/01 A2941 RMK SC8 SLP963

Heure: 02:13 (06:13 UTC)

Prévision

Le bulletin a été fait il y a 12 heures et 4 minutes, à 18:09 UTC
Prévision valable du 20 à 18 UTC au 20 à 21 UTC
Vent 8 kt de ouest/nord-ouest
Visibilité: 10 km
Nuages épars à une hauteur de 5000 ft
Temporairement
du 20 à 18 UTC au 20 à 21 UTC
Visibilité: 10 km
Nuages fragmentés à une hauteur de 5000 ft
faibles averses de pluie

TAF: CYHA 201809Z 2018/2021 30008KT WS005/28035KT P6SM SCT050 TEMPO 2018/2021 P6SM -SHRA BKN050 RMK NXT FCST WILL BE ISSUED AT 211345Z

Observations et prévisions météorologiques de plus de 4000 aéroports (messages METAR et TAF).

Les stations disponibles sont représentées par des disques jaunes et rouges sur la carte.

Passer la souris dessus pour voir le nom de la station.

Cliquer dessus pour voir les observations et prévisions météorologiques.

Pour changer de carte: cliquez sur les boutons verts avec une croix noire pour zoomer, sur le bouton vert avec un tiret pour effectuer un zoom arrière, ou sur les flèches vertes pour les cartes adjacentes.


METAR-TAF: